Upper Brookville, New York
Current Conditions -  °F | °C
As of 9:53 AM on Friday 28 Nov 2014 (Local Time) from KFRG Reporting Station
Clear Clear  
Wind Chill: 28°   Ceiling: Unl
Heat Index: 37°   Visibility: 10mi
Dew Point: 21°   Wind: 15mph
Humidity: 52%   Direction: 310°NW
Pressure: 30.16"   Gusts: 23mph
Location:  40.8471°N, 73.5334°W
Report Text: KFRG 281453Z 31013G20KT 10SM CLR 03/M06 A3016 RMK AO2 SLP213 T00281061 53015
Loading
Personal Weather Stations






























Interactive Weather Map New forecast layout! Learn more

10-Day Weather Forecast

Advertisements
Track Severe Weather on mobile